Data for 10/16/2006

Time Sea-Level Adjusted Pressure Absolute Pressure Temperature Relative Humidity Dew Point   
(mb) (inHg) (mb) (inHg) (C) (F) (%) (C) (F)
00:05 1002 29.59 832 24.57 6.9 44.4 93 5.8 42.5
00:10 1002 29.59 832 24.57 6.9 44.4 93 5.8 42.5
00:15 1002 29.59 831 24.54 6.8 44.3 93 5.8 42.4
00:20 1002 29.59 831 24.54 6.8 44.3 91 5.5 41.9
00:25 1002 29.59 831 24.54 7.1 44.7 88 5.3 41.5
00:30 1002 29.59 831 24.54 7.2 44.9 88 5.3 41.5
00:35 1002 29.59 831 24.54 7.4 45.3 84 4.9 40.8
00:40 1002 29.59 831 24.54 7.5 45.5 87 5.5 41.9
00:45 1002 29.59 831 24.54 7.1 44.8 90 5.6 42.1
00:50 1002 29.59 831 24.54 6.9 44.3 91 5.5 41.9
00:55 1002 29.59 831 24.54 6.8 44.3 90 5.4 41.6
01:00 1002 29.59 831 24.54 6.9 44.5 90 5.3 41.6
01:05 1002 29.59 831 24.54 7 44.6 89 5.4 41.7
01:10 1002 29.59 831 24.54 6.9 44.5 89 5.3 41.6
01:15 1002 29.59 831 24.54 7 44.6 88 5.2 41.3
01:20 1002 29.59 831 24.54 7 44.6 88 5.1 41.2
01:25 1002 29.59 831 24.54 7.2 44.9 89 5.4 41.8
01:30 1002 29.59 831 24.54 7.1 44.8 90 5.5 41.9
01:35 1002 29.59 831 24.54 7 44.7 89 5.4 41.7
01:40 1002 29.59 831 24.54 7.2 45 87 5.2 41.3
01:45 1002 29.59 831 24.54 7.4 45.2 86 5.2 41.3
01:50 1002 29.59 831 24.54 7.4 45.4 85 5.1 41.3
01:55 1002 29.59 831 24.54 7.3 45.1 87 5.2 41.4
02:00 1002 29.59 831 24.54 7.1 44.8 88 5.3 41.6
02:05 1002 29.59 831 24.54 6.9 44.5 89 5.3 41.5
02:10 1002 29.59 831 24.54 6.8 44.3 90 5.3 41.6
02:15 1002 29.59 831 24.54 6.8 44.3 90 5.4 41.6
02:20 1002 29.59 831 24.54 6.9 44.3 90 5.4 41.6
02:25 1002 29.59 831 24.54 6.9 44.5 89 5.3 41.6
02:30 1002 29.59 831 24.54 7 44.6 89 5.4 41.7
02:35 1002 29.59 831 24.54 7.1 44.8 87 5.2 41.3
02:40 1002 29.59 831 24.54 7.3 45.2 87 5.2 41.4
02:45 1002 29.59 831 24.54 7.5 45.4 87 5.5 41.8
02:50 1002 29.59 831 24.54 7.5 45.5 87 5.5 41.9
02:55 1002 29.59 831 24.54 7.4 45.3 90 5.8 42.5
03:00 1002 29.59 831 24.54 7.2 45 90 5.7 42.2
03:05 1002 29.59 831 24.54 7.1 44.8 91 5.7 42.2
03:10 1002 29.59 831 24.54 7 44.6 91 5.6 42.1
03:15 1002 29.59 831 24.54 7.1 44.8 90 5.5 41.9
03:20 1002 29.59 831 24.54 7.2 44.9 91 5.7 42.3
03:25 1002 29.59 831 24.54 7.2 44.9 91 5.9 42.6
03:30 1002 29.59 831 24.54 7.3 45.1 90 5.8 42.4
03:35 1002 29.59 831 24.54 7.3 45.1 91 5.9 42.6
03:40 1002 29.59 831 24.54 7.3 45.1 90 5.8 42.4
03:45 1002 29.59 831 24.54 7.2 44.9 90 5.6 42.2
03:50 1002 29.59 831 24.54 7.1 44.8 91 5.7 42.3
03:55 1002 29.59 831 24.54 7.1 44.9 92 5.9 42.6
04:00 1002 29.59 831 24.54 7.1 44.7 92 5.8 42.4
04:05 1002 29.59 831 24.54 6.9 44.5 91 5.6 42.1
04:10 1001 29.56 831 24.54 6.9 44.4 90 5.4 41.8
04:15 1002 29.59 831 24.54 6.9 44.4 90 5.4 41.8
04:20 1002 29.59 831 24.54 6.8 44.2 91 5.4 41.8
04:25 1002 29.59 831 24.54 6.7 44 92 5.5 41.9
04:30 1002 29.59 831 24.54 6.6 43.8 92 5.4 41.7
04:35 1002 29.59 831 24.54 6.7 44.1 93 5.7 42.2
04:40 1002 29.59 831 24.54 6.7 44 93 5.6 42
04:45 1002 29.59 831 24.54 6.7 44.1 93 5.6 42.1
04:50 1002 29.59 831 24.54 6.8 44.2 93 5.7 42.3
04:55 1002 29.59 831 24.54 6.7 44.1 94 5.8 42.5
05:00 1002 29.59 831 24.54 6.7 44.1 95 5.9 42.6
05:05 1002 29.59 831 24.54 6.7 44 95 5.9 42.6
05:10 1002 29.59 831 24.54 6.5 43.8 95 5.9 42.6
05:15 1002 29.59 831 24.54 6.5 43.7 96 5.9 42.6
05:20 1002 29.59 831 24.54 6.5 43.6 96 5.9 42.5
05:25 1002 29.59 831 24.54 6.4 43.6 96 5.8 42.5
05:30 1002 29.59 831 24.54 6.4 43.4 96 5.7 42.3
05:35 1002 29.59 831 24.54 6.2 43.2 96 5.6 42.1
05:40 1002 29.59 831 24.54 6.1 43.1 96 5.6 42.1
05:45 1002 29.59 831 24.54 6.1 42.9 96 5.5 41.9
05:50 1002 29.59 831 24.54 5.9 42.7 96 5.4 41.7
05:55 1002 29.59 831 24.54 5.9 42.6 96 5.3 41.6
06:00 1002 29.59 831 24.54 5.9 42.6 96 5.2 41.4
06:05 1002 29.59 831 24.54 5.8 42.4 95 5 40.9
06:10 1002 29.59 831 24.54 5.7 42.2 94 4.8 40.7
06:15 1002 29.59 832 24.57 5.7 42.2 94 4.7 40.5
06:20 1002 29.59 832 24.57 5.5 42 90 4.1 39.4
06:25 1002 29.59 832 24.57 5.5 41.8 91 4.1 39.3
06:30 1003 29.62 832 24.57 5.5 41.9 91 4.2 39.5
06:35 1003 29.62 832 24.57 5.4 41.8 91 4.1 39.5
06:40 1003 29.62 832 24.57 5.4 41.6 90 3.8 38.8
06:45 1003 29.62 832 24.57 5.2 41.4 89 3.7 38.6
06:50 1003 29.62 832 24.57 5.2 41.4 90 3.8 38.8
06:55 1003 29.62 832 24.57 5.1 41.2 90 3.6 38.6
07:00 1003 29.62 832 24.57 5 40.9 89 3.3 38
07:05 1003 29.62 832 24.57 4.9 40.8 90 3.4 38.1
07:10 1003 29.62 832 24.57 4.9 40.8 90 3.4 38.1
07:15 1003 29.62 832 24.57 4.8 40.7 90 3.3 38
07:20 1003 29.62 832 24.57 4.9 40.8 90 3.4 38.1
07:25 1003 29.62 832 24.57 4.8 40.6 91 3.5 38.3
07:30 1003 29.62 832 24.57 4.8 40.7 92 3.6 38.5
07:35 1003 29.62 832 24.57 5 41 90 3.6 38.4
07:40 1003 29.62 832 24.57 5.1 41.2 90 3.6 38.4
07:45 1003 29.62 832 24.57 5 41 91 3.6 38.5
07:50 1003 29.62 832 24.57 4.8 40.6 92 3.5 38.3
07:55 1003 29.62 832 24.57 4.5 40.2 92 3.4 38.1
08:00 1003 29.62 832 24.57 4.5 40 92 3.3 38
08:05 1003 29.62 833 24.6 4.4 39.9 93 3.4 38.1
08:10 1003 29.62 833 24.6 3.8 38.9 89 2.2 36
08:15 1003 29.62 833 24.6 2.5 36.5 93 1.5 34.7
08:20 1003 29.62 832 24.57 2.2 36 93 1.2 34.2
08:25 1003 29.62 832 24.57 1.8 35.3 95 1.1 33.9
08:30 1003 29.62 833 24.6 1.7 35.1 95 1 33.9
08:35 1003 29.62 833 24.6 1.8 35.3 95 1.1 33.9
08:40 1003 29.62 833 24.6 1.8 35.2 94 1 33.8
08:45 1003 29.62 833 24.6 1.8 35.3 94 1 33.8
08:50 1003 29.62 833 24.6 1.9 35.4 94 1.1 33.9
08:55 1003 29.62 833 24.6 1.9 35.4 95 1.1 34
09:00 1004 29.65 833 24.6 1.9 35.5 94 1 33.9
09:05 1004 29.65 833 24.6 1.9 35.5 94 1.1 33.9
09:10 1004 29.65 833 24.6 2 35.6 94 1.2 34.1
09:15 1004 29.65 833 24.6 2.2 35.9 94 1.3 34.4
09:20 1004 29.65 833 24.6 2.3 36.1 94 1.3 34.4
09:25 1004 29.65 833 24.6 2.3 36.2 94 1.4 34.6
09:30 1004 29.65 833 24.6 2.4 36.4 94 1.5 34.8
09:35 1004 29.65 833 24.6 2.6 36.6 94 1.7 35
09:40 1004 29.65 833 24.6 2.8 37 93 1.8 35.3
09:45 1004 29.65 833 24.6 3 37.3 93 2 35.5
09:50 1004 29.65 833 24.6 3.2 37.7 93 2.1 35.8
09:55 1004 29.65 833 24.6 3.2 37.7 92 2 35.6
10:00 1004 29.65 833 24.6 3.3 37.9 92 2.1 35.8
10:05 1004 29.65 833 24.6 3.5 38.4 92 2.4 36.4
10:10 1004 29.65 833 24.6 3.7 38.7 92 2.5 36.5
10:15 1004 29.65 833 24.6 3.9 39 91 2.6 36.6
10:20 1004 29.65 833 24.6 3.9 39 91 2.6 36.6
10:25 1004 29.65 833 24.6 4 39.1 91 2.7 36.8
10:30 1004 29.65 834 24.63 4.1 39.4 91 2.8 37.1
10:35 1004 29.65 834 24.63 4.2 39.6 91 2.9 37.2
10:40 1004 29.65 834 24.63 4.3 39.8 91 3 37.4
10:45 1004 29.65 834 24.63 4.4 39.9 91 3 37.5
10:50 1004 29.65 834 24.63 4.4 39.9 92 3.2 37.8
10:55 1004 29.65 834 24.63 4.4 40 91 3.1 37.6
11:00 1004 29.65 834 24.63 4.3 39.8 91 3 37.4
11:05 1004 29.65 834 24.63 4.4 39.9 90 2.9 37.2
11:10 1004 29.65 834 24.63 4.4 39.9 91 3.1 37.5
11:15 1005 29.68 834 24.63 4.5 40.1 92 3.3 37.9
11:20 1005 29.68 834 24.63 4.5 40.1 92 3.3 37.9
11:25 1005 29.68 834 24.63 4.6 40.3 91 3.3 37.9
11:30 1005 29.68 834 24.63 4.5 40.1 91 3.1 37.6
11:35 1005 29.68 834 24.63 4.4 40 91 3 37.5
11:40 1005 29.68 834 24.63 4.5 40 91 3.2 37.7
11:45 1005 29.68 834 24.63 4.6 40.2 91 3.3 37.9
11:50 1005 29.68 834 24.63 4.6 40.2 92 3.4 38.1
11:55 1005 29.68 834 24.63 4.6 40.3 91 3.2 37.7
12:00 1005 29.68 834 24.63 4.6 40.2 90 3.1 37.5
12:05 1005 29.68 834 24.63 4.4 39.9 89 2.8 37.1
12:10 1005 29.68 834 24.63 4.3 39.8 90 2.8 37.1
12:15 1005 29.68 834 24.63 4.3 39.8 90 2.9 37.2
12:20 1005 29.68 834 24.63 4.2 39.6 89 2.6 36.7
12:25 1005 29.68 834 24.63 4 39.2 90 2.6 36.7
12:30 1005 29.68 834 24.63 3.9 39.1 90 2.5 36.5
12:35 1005 29.68 834 24.63 3.7 38.7 90 2.3 36.2
12:40 1005 29.68 834 24.63 3.6 38.4 90 2 35.7
12:45 1005 29.68 834 24.63 3.4 38.1 92 2.2 36
12:50 1005 29.68 835 24.66 3.4 38.2 93 2.4 36.2
12:55 1005 29.68 835 24.66 3.6 38.4 93 2.5 36.5
13:00 1005 29.68 835 24.66 3.6 38.5 93 2.6 36.6
13:05 1006 29.71 835 24.66 3.5 38.4 92 2.3 36.1
13:10 1006 29.71 835 24.66 3.4 38.1 92 2.3 36.1
13:15 1006 29.71 835 24.66 3.3 38 92 2.2 36
13:20 1006 29.71 835 24.66 3.4 38.1 93 2.4 36.4
13:25 1006 29.71 835 24.66 3.4 38.1 94 2.4 36.4
13:30 1006 29.71 835 24.66 3.2 37.8 93 2.2 36
13:35 1006 29.71 835 24.66 3.1 37.6 92 1.9 35.5
13:40 1006 29.71 835 24.66 2.9 37.3 93 1.9 35.4
13:45 1006 29.71 835 24.66 2.8 37 93 1.8 35.3
13:50 1006 29.71 835 24.66 2.7 36.8 93 1.7 35.1
13:55 1006 29.71 835 24.66 2.5 36.5 93 1.5 34.7
14:00 1006 29.71 835 24.66 2.4 36.3 94 1.5 34.7
14:05 1006 29.71 835 24.66 2.2 36 94 1.3 34.3
14:10 1006 29.71 835 24.66 2.1 35.7 94 1.2 34.2
14:15 1006 29.71 835 24.66 2.1 35.8 94 1.3 34.3
14:20 1006 29.71 835 24.66 2.2 35.9 94 1.3 34.3
14:25 1006 29.71 835 24.66 2.1 35.8 94 1.3 34.4
14:30 1006 29.71 836 24.69 2.2 35.9 94 1.4 34.5
14:35 1006 29.71 836 24.69 2.2 36 94 1.4 34.4
14:40 1006 29.71 836 24.69 2.3 36.2 94 1.5 34.7
14:45 1006 29.71 836 24.69 2.4 36.4 95 1.7 35
14:50 1007 29.74 836 24.69 2.4 36.4 95 1.7 35
14:55 1007 29.74 836 24.69 2.5 36.4 94 1.6 34.9
15:00 1007 29.74 836 24.69 2.5 36.5 94 1.6 34.9
15:05 1007 29.74 836 24.69 2.4 36.3 94 1.5 34.6
15:10 1007 29.74 836 24.69 2.3 36.1 94 1.4 34.5
15:15 1007 29.74 836 24.69 2.2 36 93 1.2 34.2
15:20 1007 29.74 836 24.69 2.1 35.8 94 1.2 34.2
15:25 1007 29.74 836 24.69 2.1 35.8 94 1.2 34.2
15:30 1007 29.74 836 24.69 2 35.7 94 1.1 34.1
15:35 1007 29.74 836 24.69 2 35.6 94 1.1 34
15:40 1007 29.74 837 24.72 2 35.5 94 1.1 33.9
15:45 1007 29.74 837 24.72 1.8 35.2 94 0.9 33.6
15:50 1008 29.77 837 24.72 1.6 34.9 94 0.8 33.4
15:55 1008 29.77 837 24.72 1.5 34.6 95 0.7 33.3
16:00 1008 29.77 837 24.72 1.4 34.5 95 0.7 33.2
16:05 1008 29.77 837 24.72 1.4 34.5 95 0.7 33.2
16:10 1008 29.77 837 24.72 1.3 34.4 95 0.7 33.2
16:15 1008 29.77 837 24.72 1.3 34.3 95 0.6 33.1
16:20 1008 29.77 837 24.72 1.2 34.2 95 0.5 32.9
16:25 1008 29.77 837 24.72 1 33.8 96 0.4 32.8
16:30 1008 29.77 837 24.72 1 33.8 96 0.4 32.8
16:35 1008 29.77 838 24.75 0.9 33.6 96 0.3 32.6
16:40 1008 29.77 838 24.75 0.7 33.3 97 0.3 32.5
16:45 1008 29.77 838 24.75 0.7 33.3 97 0.3 32.5
16:50 1009 29.8 838 24.75 0.8 33.4 97 0.4 32.7
16:55 1009 29.8 838 24.75 0.8 33.4 97 0.4 32.7
17:00 1009 29.8 838 24.75 0.8 33.4 97 0.3 32.6
17:05 1009 29.8 838 24.75 0.7 33.3 97 0.3 32.6
17:10 1009 29.8 838 24.75 0.7 33.3 97 0.3 32.5
17:15 1009 29.8 838 24.75 0.6 33.1 97 0.2 32.4
17:20 1009 29.8 838 24.75 0.6 33.1 97 0.2 32.4
17:25 1009 29.8 838 24.75 0.6 33.1 97 0.3 32.5
17:30 1009 29.8 838 24.75 0.6 33.1 97 0.2 32.4
17:35 1009 29.8 838 24.75 0.6 33.1 97 0.2 32.4
17:40 1009 29.8 839 24.78 0.6 33.2 97 0.3 32.5
17:45 1009 29.8 839 24.78 0.6 33 97 0.2 32.3
17:50 1009 29.8 839 24.78 0.5 32.9 97 0.1 32.2
17:55 1009 29.8 839 24.78 0.4 32.8 97 0.1 32.1
18:00 1010 29.83 839 24.78 0.4 32.7 97 0 32
18:05 1010 29.83 839 24.78 0.3 32.6 98 0 32
18:10 1010 29.83 839 24.78 0.3 32.6 98 0 32
18:15 1010 29.83 839 24.78 0.4 32.6 98 0 32.1
18:20 1010 29.83 839 24.78 0.3 32.6 98 0 32
18:25 1010 29.83 839 24.78 0.3 32.5 98 -0 32
18:30 1010 29.83 839 24.78 0.2 32.4 98 -0.1 31.8
18:35 1010 29.83 839 24.78 0.3 32.5 98 -0 31.9
18:40 1010 29.83 839 24.78 0.2 32.4 98 -0.1 31.9
18:45 1010 29.83 839 24.78 0.2 32.4 98 -0.1 31.9
18:50 1010 29.83 839 24.78 0.2 32.4 98 -0.1 31.8
18:55 1010 29.83 839 24.78 0.2 32.3 98 -0.2 31.7
19:00 1010 29.83 839 24.78 0.2 32.3 98 -0.2 31.7
19:05 1010 29.83 840 24.81 0.1 32.1 98 -0.2 31.6
19:10 1010 29.83 840 24.81 0 32.1 98 -0.3 31.5
19:15 1011 29.85 840 24.81 0 32.1 98 -0.3 31.5
19:20 1011 29.85 840 24.81 -0 32 98 -0.3 31.5
19:25 1011 29.85 840 24.81 -0 32 98 -0.3 31.5
19:30 1011 29.85 840 24.81 -0.1 31.9 98 -0.3 31.4
19:35 1011 29.85 840 24.81 -0.1 31.8 98 -0.4 31.3
19:40 1011 29.85 840 24.81 -0.1 31.8 98 -0.4 31.2
19:45 1011 29.85 840 24.81 -0.2 31.6 98 -0.5 31.1
19:50 1011 29.85 840 24.81 -0.3 31.4 98 -0.6 30.9
19:55 1011 29.85 840 24.81 -0.3 31.4 98 -0.6 30.9
20:00 1011 29.85 840 24.81 -0.4 31.3 98 -0.7 30.8
20:05 1011 29.85 841 24.83 -0.4 31.2 98 -0.7 30.7
20:10 1011 29.85 841 24.83 -0.5 31.2 98 -0.7 30.7
20:15 1011 29.85 841 24.83 -0.4 31.2 98 -0.7 30.8
20:20 1012 29.88 841 24.83 -0.5 31.1 98 -0.7 30.7
20:25 1012 29.88 841 24.83 -0.5 31.1 98 -0.7 30.7
20:30 1012 29.88 841 24.83 -0.6 30.9 98 -0.9 30.4
20:35 1012 29.88 841 24.83 -0.7 30.8 98 -0.9 30.3
20:40 1012 29.88 841 24.83 -0.7 30.8 98 -1 30.3
20:45 1012 29.88 841 24.83 -0.7 30.7 98 -1 30.2
20:50 1012 29.88 841 24.83 -0.7 30.7 98 -1 30.2
20:55 1012 29.88 841 24.83 -0.8 30.6 98 -1 30.2
21:00 1012 29.88 841 24.83 -0.8 30.6 98 -1 30.2
21:05 1012 29.88 841 24.83 -0.8 30.5 98 -1.1 30.1
21:10 1012 29.88 841 24.83 -0.8 30.5 98 -1.1 30.1
21:15 1012 29.88 841 24.83 -0.8 30.6 98 -1 30.2
21:20 1012 29.88 841 24.83 -0.9 30.5 98 -1.1 30
21:25 1012 29.88 841 24.83 -1 30.3 98 -1.2 29.8
21:30 1012 29.88 841 24.83 -1 30.2 98 -1.2 29.8
21:35 1012 29.88 841 24.83 -1 30.1 98 -1.3 29.7
21:40 1012 29.88 842 24.86 -1 30.1 98 -1.3 29.7
21:45 1012 29.88 842 24.86 -1 30.2 99 -1.2 29.8
21:50 1012 29.88 842 24.86 -1.1 30.1 98 -1.3 29.7
21:55 1013 29.91 842 24.86 -1.1 30 98 -1.3 29.6
22:00 1013 29.91 842 24.86 -1.2 29.9 99 -1.4 29.5
22:05 1013 29.91 842 24.86 -1.2 29.9 98 -1.4 29.5
22:10 1013 29.91 842 24.86 -1.2 29.9 98 -1.4 29.4
22:15 1013 29.91 842 24.86 -1.1 30 98 -1.3 29.6
22:20 1013 29.91 842 24.86 -1.2 29.9 98 -1.4 29.4
22:25 1013 29.91 842 24.86 -1.2 29.8 98 -1.5 29.4
22:30 1013 29.91 842 24.86 -1.2 29.8 98 -1.5 29.4
22:35 1013 29.91 842 24.86 -1.2 29.8 98 -1.5 29.4
22:40 1013 29.91 842 24.86 -1.3 29.7 98 -1.6 29.2
22:45 1013 29.91 842 24.86 -1.3 29.6 98 -1.6 29.2
22:50 1013 29.91 842 24.86 -1.3 29.6 98 -1.6 29.2
22:55 1013 29.91 842 24.86 -1.4 29.4 98 -1.7 28.9
23:00 1013 29.91 842 24.86 -1.4 29.5 98 -1.6 29.1
23:05 1013 29.91 842 24.86 -1.4 29.5 98 -1.7 29
23:10 1013 29.91 842 24.86 -1.4 29.4 98 -1.7 28.9
23:15 1013 29.91 843 24.89 -1.5 29.3 98 -1.8 28.8
23:20 1013 29.91 843 24.89 -1.5 29.3 98 -1.7 28.9
23:25 1013 29.91 843 24.89 -1.5 29.3 98 -1.7 28.9
23:30 1013 29.91 843 24.89 -1.5 29.3 98 -1.8 28.8
23:35 1013 29.91 843 24.89 -1.4 29.5 98 -1.6 29
23:40 1013 29.91 843 24.89 -1.3 29.6 98 -1.7 29
23:45 1013 29.91 843 24.89 -1.4 29.5 98 -1.7 29
23:50 1014 29.94 843 24.89 -1.4 29.5 98 -1.7 28.9
23:55 1014 29.94 843 24.89 -1.5 29.3 98 -1.8 28.8
24:00 1014 29.94 843 24.89 -1.5 29.3 98 -1.8 28.7